Time;durP1;ratioP1;P1;durP2;ratioP2;P2;SDS_P1;SDS_P2;PMS_P1;PMS_P2;Temp;Humidity;BMP_temperature;BMP_pressure;BME280_temperature;BME280_humidity;BME280_pressure;Samples;Min_cycle;Max_cycle;Signal;HPM_P1;HPM_P2
2022/10/01 00:02:36;;;;;;;11.10;5.90;;;21.50;72.40;;;;;;220891;1264;22525;-48
2022/10/01 00:07:51;;;;;;;10.60;5.90;;;21.50;72.30;;;;;;220627;1267;25238;-48
2022/10/01 00:13:12;;;;;;;11.80;6.10;;;21.50;72.90;;;;;;220538;1264;25884;-46
2022/10/01 00:18:25;;;;;;;10.40;5.80;;;21.50;72.20;;;;;;221219;1265;25222;-51
2022/10/01 00:23:30;;;;;;;8.40;5.30;;;21.40;72.20;;;;;;220723;1265;24262;-48
2022/10/01 00:28:52;;;;;;;12.20;6.10;;;21.50;72.10;;;;;;220496;1264;24265;-47
2022/10/01 00:34:04;;;;;;;10.70;6.10;;;21.40;71.90;;;;;;220383;1267;25239;-50
2022/10/01 00:39:10;;;;;;;8.90;5.90;;;21.40;71.90;;;;;;220441;1267;22617;-46
2022/10/01 00:44:35;;;;;;;10.30;5.50;;;21.40;71.80;;;;;;221460;1267;22532;-50
2022/10/01 00:49:42;;;;;;;9.90;5.90;;;21.40;71.80;;;;;;220750;1267;22529;-49
2022/10/01 00:54:57;;;;;;;9.40;5.60;;;21.40;71.80;;;;;;220508;1267;22513;-49
2022/10/01 01:00:07;;;;;;;12.10;6.20;;;21.30;71.70;;;;;;220789;1267;22638;-46
2022/10/01 01:05:12;;;;;;;9.70;5.70;;;21.30;71.80;;;;;;221016;1267;26481;-47
2022/10/01 01:10:27;;;;;;;13.50;5.70;;;21.30;71.80;;;;;;220666;1267;24251;-49
2022/10/01 01:15:40;;;;;;;8.10;5.80;;;21.30;71.70;;;;;;220822;1267;22530;-51
2022/10/01 01:20:51;;;;;;;8.70;5.00;;;21.30;71.70;;;;;;220513;1268;23075;-49
2022/10/01 01:26:04;;;;;;;8.60;5.60;;;21.30;71.60;;;;;;221090;1267;23035;-48
2022/10/01 01:31:15;;;;;;;9.30;5.40;;;21.20;71.50;;;;;;220999;1267;22529;-48
2022/10/01 01:36:35;;;;;;;10.80;5.60;;;21.20;72.10;;;;;;220850;1267;22698;-59
2022/10/01 01:41:49;;;;;;;8.40;5.40;;;21.20;71.60;;;;;;220405;1267;22550;-48
2022/10/01 01:46:58;;;;;;;9.70;5.20;;;21.20;71.50;;;;;;220379;1267;25360;-50
2022/10/01 01:52:07;;;;;;;9.10;5.60;;;21.20;71.60;;;;;;220495;1267;25585;-52
2022/10/01 01:57:12;;;;;;;10.10;5.70;;;21.20;72.00;;;;;;220468;1267;24220;-53
2022/10/01 02:02:27;;;;;;;8.60;5.60;;;21.10;71.60;;;;;;220597;1267;22538;-49
2022/10/01 02:07:36;;;;;;;9.30;5.30;;;21.10;71.80;;;;;;220733;1267;25246;-49
2022/10/01 02:12:46;;;;;;;7.50;5.00;;;21.10;71.70;;;;;;220827;1267;22564;-49
2022/10/01 02:18:22;;;;;;;8.20;5.30;;;21.10;71.60;;;;;;220889;1267;22678;-49
2022/10/01 02:23:30;;;;;;;7.80;4.80;;;21.10;71.50;;;;;;220571;1267;22532;-51
2022/10/01 02:28:37;;;;;;;8.10;5.50;;;21.10;71.50;;;;;;220639;1267;24222;-52
2022/10/01 02:33:42;;;;;;;9.60;5.80;;;21.10;71.80;;;;;;220673;1267;22841;-49
2022/10/01 02:38:49;;;;;;;7.20;4.70;;;21.00;71.50;;;;;;220786;1267;23761;-48
2022/10/01 02:43:59;;;;;;;7.80;5.20;;;21.00;71.60;;;;;;220712;1267;24214;-47
2022/10/01 02:49:04;;;;;;;9.20;5.20;;;21.00;71.70;;;;;;220457;1267;22538;-48
2022/10/01 02:54:36;;;;;;;7.10;5.10;;;21.00;71.70;;;;;;220691;1267;25335;-47
2022/10/01 02:59:41;;;;;;;7.00;5.00;;;20.90;71.80;;;;;;220858;1267;24428;-51
2022/10/01 03:04:48;;;;;;;9.10;5.20;;;20.90;71.60;;;;;;220716;1267;25987;-48
2022/10/01 03:09:53;;;;;;;7.20;4.70;;;20.90;71.50;;;;;;220954;1267;22813;-48
2022/10/01 03:14:56;;;;;;;7.40;5.20;;;20.90;71.50;;;;;;220553;1267;25298;-52
2022/10/01 03:20:00;;;;;;;6.70;4.60;;;20.90;71.40;;;;;;220600;1267;25302;-48
2022/10/01 03:25:04;;;;;;;7.50;4.70;;;20.90;71.40;;;;;;220729;1267;22529;-46
2022/10/01 03:30:09;;;;;;;6.70;5.00;;;20.90;71.50;;;;;;220712;1267;24218;-46
2022/10/01 03:35:13;;;;;;;8.30;5.30;;;20.90;71.70;;;;;;220523;1267;22749;-48
2022/10/01 03:40:16;;;;;;;6.60;4.50;;;20.90;71.30;;;;;;220542;1267;22529;-48
2022/10/01 03:45:20;;;;;;;6.90;4.80;;;20.80;71.50;;;;;;220664;1267;25550;-49
2022/10/01 03:50:24;;;;;;;6.90;4.70;;;20.80;71.70;;;;;;220489;1267;22558;-46
2022/10/01 03:55:27;;;;;;;8.00;4.40;;;20.80;71.40;;;;;;220495;1267;22525;-49
2022/10/01 04:00:31;;;;;;;7.00;4.80;;;20.90;71.10;;;;;;220773;1270;22703;-47
2022/10/01 04:05:34;;;;;;;6.50;4.70;;;21.20;70.60;;;;;;220967;1267;22520;-45
2022/10/01 04:10:38;;;;;;;6.90;4.40;;;21.40;70.10;;;;;;220403;1270;25501;-46
2022/10/01 04:15:42;;;;;;;8.00;4.70;;;21.50;69.60;;;;;;220392;1267;22522;-50
2022/10/01 04:20:46;;;;;;;7.90;4.90;;;21.60;69.20;;;;;;220930;1267;24368;-52
2022/10/01 04:25:50;;;;;;;6.00;4.60;;;21.70;68.80;;;;;;220667;1267;22559;-47
2022/10/01 04:36:16;;;;;;;8.60;4.70;;;21.70;68.70;;;;;;220903;1268;25245;-51
2022/10/01 04:41:24;;;;;;;6.10;4.30;;;21.70;68.50;;;;;;220979;1267;24397;-48
2022/10/01 04:46:29;;;;;;;7.60;4.40;;;21.70;69.10;;;;;;220255;1270;25302;-47
2022/10/01 04:51:32;;;;;;;6.80;4.20;;;21.70;68.70;;;;;;220625;1268;22524;-50
2022/10/01 04:56:36;;;;;;;5.90;4.10;;;21.70;68.70;;;;;;220792;1267;22539;-50
2022/10/01 05:01:43;;;;;;;7.10;4.60;;;21.60;69.40;;;;;;220804;1268;24389;-52
2022/10/01 05:06:46;;;;;;;5.80;4.00;;;21.70;68.80;;;;;;220844;1268;24232;-50
2022/10/01 05:11:50;;;;;;;7.70;4.60;;;21.60;68.40;;;;;;220222;1267;22572;-50
2022/10/01 05:16:54;;;;;;;6.60;4.50;;;21.60;68.80;;;;;;220924;1267;22567;-48
2022/10/01 05:21:59;;;;;;;7.70;4.90;;;21.60;68.80;;;;;;220302;1267;24263;-45
2022/10/01 05:27:02;;;;;;;7.00;4.40;;;21.60;68.90;;;;;;220573;1268;25410;-48
2022/10/01 05:32:07;;;;;;;5.70;4.10;;;21.60;69.00;;;;;;220478;1268;22564;-49
2022/10/01 05:37:18;;;;;;;6.10;4.20;;;21.60;68.70;;;;;;220868;1268;24106;-47
2022/10/01 05:42:22;;;;;;;6.10;4.10;;;21.60;68.80;;;;;;220360;1267;25281;-48
2022/10/01 05:47:27;;;;;;;6.00;4.10;;;21.50;69.20;;;;;;220526;1267;25473;-48
2022/10/01 05:52:34;;;;;;;5.70;3.90;;;21.60;69.10;;;;;;220412;1267;24224;-48
2022/10/01 05:57:37;;;;;;;6.80;4.20;;;21.50;68.70;;;;;;220517;1267;22537;-48
2022/10/01 06:02:41;;;;;;;6.30;4.10;;;21.60;68.70;;;;;;220353;1268;22538;-53
2022/10/01 06:07:48;;;;;;;6.90;3.90;;;21.60;68.60;;;;;;220361;1267;24741;-48
2022/10/01 06:13:07;;;;;;;5.00;3.90;;;21.50;68.60;;;;;;220200;1267;24719;-48
2022/10/01 06:18:13;;;;;;;7.20;3.90;;;21.50;68.60;;;;;;220463;1268;23448;-52
2022/10/01 06:23:19;;;;;;;6.20;4.20;;;21.50;68.50;;;;;;220303;1267;25335;-50
2022/10/01 06:28:27;;;;;;;6.60;4.40;;;21.50;68.80;;;;;;220816;1267;22590;-49
2022/10/01 06:33:35;;;;;;;6.10;4.30;;;21.50;68.50;;;;;;220525;1267;25410;-48
2022/10/01 06:38:46;;;;;;;6.80;4.10;;;21.60;68.10;;;;;;221038;1267;24508;-51
2022/10/01 06:43:49;;;;;;;6.70;3.90;;;21.50;68.40;;;;;;220768;1267;25301;-46
2022/10/01 06:48:55;;;;;;;5.60;4.00;;;21.60;68.80;;;;;;220630;1268;22612;-47
2022/10/01 06:53:58;;;;;;;6.60;3.90;;;21.60;68.50;;;;;;220616;1267;24279;-46
2022/10/01 06:59:07;;;;;;;6.00;4.10;;;21.60;68.50;;;;;;220712;1268;25170;-46
2022/10/01 07:04:12;;;;;;;6.50;3.90;;;21.60;68.30;;;;;;220440;1268;24224;-52
2022/10/01 07:09:16;;;;;;;4.70;3.50;;;21.60;68.30;;;;;;220682;1267;22712;-57
2022/10/01 07:14:20;;;;;;;6.40;3.70;;;21.60;68.20;;;;;;220949;1270;22539;-47
2022/10/01 07:19:24;;;;;;;6.20;4.00;;;21.60;68.20;;;;;;220307;1268;22540;-48
2022/10/01 07:24:27;;;;;;;7.30;4.00;;;21.70;68.30;;;;;;220660;1270;22589;-53
2022/10/01 07:29:31;;;;;;;5.70;4.40;;;21.70;68.10;;;;;;220564;1268;25290;-49
2022/10/01 07:34:40;;;;;;;6.00;4.20;;;21.80;67.90;;;;;;220656;1267;24240;-53
2022/10/01 07:39:44;;;;;;;9.50;4.50;;;21.80;68.00;;;;;;220697;1270;22574;-50
2022/10/01 07:44:48;;;;;;;6.90;4.00;;;21.80;68.20;;;;;;220712;1268;25312;-48
2022/10/01 07:49:55;;;;;;;4.80;3.60;;;21.80;68.20;;;;;;220445;1270;22528;-51
2022/10/01 07:54:58;;;;;;;7.30;4.30;;;21.80;68.30;;;;;;220670;1267;26478;-48
2022/10/01 08:00:09;;;;;;;11.10;4.00;;;21.90;67.60;;;;;;220672;1267;24262;-48
2022/10/01 08:05:34;;;;;;;7.30;3.30;;;21.90;68.40;;;;;;220295;1270;22723;-50
2022/10/01 08:10:38;;;;;;;6.40;3.90;;;22.00;68.00;;;;;;220284;1270;22576;-50
2022/10/01 08:15:52;;;;;;;9.80;4.10;;;22.10;67.60;;;;;;220546;1268;23898;-48
2022/10/01 08:21:00;;;;;;;6.70;4.00;;;22.10;68.00;;;;;;220358;1270;25232;-48
2022/10/01 08:26:08;;;;;;;6.60;3.70;;;22.20;67.80;;;;;;220038;1268;25425;-48
2022/10/01 08:31:11;;;;;;;5.10;3.40;;;22.20;67.80;;;;;;220303;1270;23156;-52
2022/10/01 08:36:15;;;;;;;7.60;3.40;;;22.10;68.30;;;;;;220424;1267;24211;-52
2022/10/01 08:41:44;;;;;;;7.00;4.00;;;22.20;68.30;;;;;;220398;1268;24216;-49
2022/10/01 08:46:50;;;;;;;7.00;3.50;;;22.20;68.40;;;;;;220116;1271;24293;-51
2022/10/01 08:52:03;;;;;;;8.10;3.10;;;22.20;68.70;;;;;;219962;1268;24599;-52
2022/10/01 08:57:17;;;;;;;13.00;4.40;;;22.20;68.80;;;;;;220569;1268;24096;-52
2022/10/01 09:02:32;;;;;;;10.90;3.70;;;22.20;69.40;;;;;;220497;1270;24220;-53
2022/10/01 09:07:53;;;;;;;13.30;5.00;;;22.20;69.40;;;;;;220688;1268;25564;-49
2022/10/01 09:13:18;;;;;;;9.50;4.50;;;22.30;69.70;;;;;;220566;1268;23908;-49
2022/10/01 09:18:59;;;;;;;18.20;4.60;;;22.30;71.30;;;;;;220264;1269;22549;-51
2022/10/01 09:24:15;;;;;;;9.80;4.30;;;22.20;70.90;;;;;;220408;1268;22538;-47
2022/10/01 09:29:54;;;;;;;10.80;4.60;;;22.20;71.10;;;;;;220797;1269;23335;-47
2022/10/01 09:35:19;;;;;;;9.10;4.40;;;22.20;70.90;;;;;;220598;1268;25352;-47
2022/10/01 09:40:35;;;;;;;11.30;4.50;;;22.20;70.80;;;;;;220700;1268;23933;-50
2022/10/01 09:45:41;;;;;;;8.50;4.10;;;22.20;70.80;;;;;;220736;1269;23708;-47
2022/10/01 09:50:55;;;;;;;9.70;4.40;;;22.10;71.00;;;;;;220595;1270;22532;-51
2022/10/01 09:56:04;;;;;;;10.40;4.50;;;22.10;70.70;;;;;;220639;1269;25308;-51
2022/10/01 10:01:20;;;;;;;14.00;4.90;;;22.10;71.20;;;;;;220256;1268;25557;-47
2022/10/01 10:06:27;;;;;;;30.90;4.60;;;22.10;71.70;;;;;;220654;1269;24343;-52
2022/10/01 10:11:35;;;;;;;12.50;4.90;;;22.10;71.20;;;;;;220187;1270;22556;-49
2022/10/01 10:16:47;;;;;;;8.40;4.00;;;22.20;71.10;;;;;;220219;1268;25548;-49
2022/10/01 10:21:59;;;;;;;8.20;3.90;;;22.20;70.80;;;;;;220226;1268;26486;-50
2022/10/01 10:27:19;;;;;;;12.60;4.90;;;22.20;70.90;;;;;;220065;1268;26932;-52
2022/10/01 10:32:27;;;;;;;8.70;4.30;;;22.10;70.40;;;;;;220111;1268;22570;-51
2022/10/01 10:37:35;;;;;;;6.20;3.80;;;22.10;70.50;;;;;;220327;1268;22532;-49
2022/10/01 10:42:46;;;;;;;7.60;3.90;;;22.10;70.40;;;;;;220351;1268;22739;-50
2022/10/01 10:47:52;;;;;;;6.70;3.80;;;22.10;70.10;;;;;;220077;1269;182141;-49
2022/10/01 10:52:58;;;;;;;13.60;4.50;;;22.20;69.80;;;;;;220371;1268;24244;-49
2022/10/01 10:58:18;;;;;;;9.50;4.70;;;22.10;69.70;;;;;;220425;1268;22537;-50
2022/10/01 11:03:25;;;;;;;7.30;4.20;;;22.20;69.60;;;;;;220550;1268;24312;-48
2022/10/01 11:08:29;;;;;;;7.00;3.70;;;22.20;69.80;;;;;;220069;1269;23980;-48
2022/10/01 11:13:48;;;;;;;38.70;12.50;;;22.20;69.90;;;;;;220361;1268;25261;-49
2022/10/01 11:19:09;;;;;;;114.10;36.30;;;22.10;69.50;;;;;;220317;1268;22563;-52
2022/10/01 11:24:38;;;;;;;257.40;74.90;;;22.20;69.50;;;;;;220423;1268;25248;-52
2022/10/01 11:30:14;;;;;;;276.10;79.70;;;22.20;69.80;;;;;;220343;1268;22540;-51
2022/10/01 11:35:41;;;;;;;404.70;119.00;;;22.20;69.60;;;;;;219994;1267;22760;-52
2022/10/01 11:40:55;;;;;;;420.20;127.50;;;22.10;69.40;;;;;;220470;1267;23636;-47
2022/10/01 11:46:36;;;;;;;460.50;138.90;;;22.20;69.40;;;;;;220503;1268;24272;-46
2022/10/01 11:51:48;;;;;;;474.60;148.90;;;22.20;69.50;;;;;;220171;1267;22569;-45
2022/10/01 12:02:43;;;;;;;547.00;182.50;;;22.20;69.30;;;;;;220490;1268;22519;-48
2022/10/01 12:08:23;;;;;;;581.20;181.00;;;22.20;69.30;;;;;;220500;1267;26479;-47
2022/10/01 12:13:55;;;;;;;558.80;187.70;;;22.20;69.10;;;;;;219911;1271;24542;-47
2022/10/01 12:19:35;;;;;;;494.30;157.00;;;22.10;69.40;;;;;;219828;1271;22718;-47
2022/10/01 12:24:45;;;;;;;483.10;155.80;;;22.10;69.50;;;;;;219618;1270;24219;-46
2022/10/01 12:29:59;;;;;;;494.20;163.50;;;22.20;69.60;;;;;;219894;1271;22655;-47
2022/10/01 12:35:40;;;;;;;459.10;146.80;;;22.20;69.80;;;;;;219939;1271;26287;-48
2022/10/01 12:41:11;;;;;;;437.00;142.30;;;22.20;70.10;;;;;;219771;1271;25461;-49
2022/10/01 12:46:30;;;;;;;417.10;129.70;;;22.10;70.00;;;;;;220121;1267;22753;-51
2022/10/01 12:51:54;;;;;;;421.60;131.70;;;22.10;68.90;;;;;;220372;1270;25303;-49
2022/10/01 12:57:10;;;;;;;387.80;126.90;;;22.20;69.20;;;;;;220372;1267;22534;-47
2022/10/01 13:02:46;;;;;;;390.70;124.80;;;22.30;68.80;;;;;;220213;1267;22541;-54
2022/10/01 13:08:09;;;;;;;325.80;111.60;;;22.20;68.40;;;;;;220621;1268;24223;-56
2022/10/01 13:13:23;;;;;;;303.50;101.80;;;22.20;68.50;;;;;;220559;1267;22567;-49
2022/10/01 13:19:11;;;;;;;315.40;108.90;;;22.20;68.70;;;;;;220859;1267;22596;-52
2022/10/01 13:24:27;;;;;;;285.70;99.20;;;22.20;69.80;;;;;;220311;1267;25321;-50
2022/10/01 13:29:50;;;;;;;283.40;101.50;;;22.20;69.60;;;;;;220572;1268;26297;-51
2022/10/01 13:35:17;;;;;;;259.00;94.40;;;22.20;69.60;;;;;;220607;1267;22535;-50
2022/10/01 13:40:40;;;;;;;240.10;90.30;;;22.30;69.40;;;;;;220537;1267;22551;-48
2022/10/01 13:45:49;;;;;;;267.90;93.50;;;22.30;69.30;;;;;;220533;1267;25743;-55
2022/10/01 13:51:02;;;;;;;261.60;91.10;;;22.30;69.60;;;;;;220614;1265;25339;-54
2022/10/01 13:56:28;;;;;;;226.00;83.80;;;22.30;70.20;;;;;;220621;1268;22528;-55
2022/10/01 14:01:38;;;;;;;213.50;75.60;;;22.30;70.00;;;;;;221329;1266;26778;-57
2022/10/01 14:06:55;;;;;;;188.30;71.10;;;22.30;69.80;;;;;;220709;1267;22718;-52
2022/10/01 14:17:37;;;;;;;185.40;68.70;;;22.30;70.40;;;;;;220417;1267;25376;-48
2022/10/01 14:23:00;;;;;;;183.70;69.50;;;22.30;69.90;;;;;;220529;1267;24370;-50
2022/10/01 14:28:21;;;;;;;179.60;68.00;;;22.40;69.90;;;;;;220478;1267;25608;-53
2022/10/01 14:33:43;;;;;;;173.70;66.90;;;22.40;69.90;;;;;;220352;1268;22667;-54
2022/10/01 14:38:47;;;;;;;161.50;64.00;;;22.40;69.90;;;;;;220575;1267;24215;-50
2022/10/01 14:43:50;;;;;;;155.60;64.00;;;22.40;70.00;;;;;;220294;1267;22535;-48
2022/10/01 14:48:58;;;;;;;150.40;59.10;;;22.40;70.00;;;;;;220302;1267;24290;-50
2022/10/01 14:54:04;;;;;;;143.70;58.10;;;22.40;70.00;;;;;;220387;1267;24725;-49
2022/10/01 14:59:24;;;;;;;155.10;57.40;;;22.40;70.00;;;;;;220316;1267;24392;-49
2022/10/01 15:04:28;;;;;;;134.20;53.10;;;22.40;70.00;;;;;;220610;1267;24217;-47
2022/10/01 15:09:33;;;;;;;132.60;53.20;;;22.40;69.90;;;;;;220026;1267;25042;-49
2022/10/01 15:14:36;;;;;;;131.10;51.50;;;22.40;69.90;;;;;;220633;1267;25370;-49
2022/10/01 15:19:45;;;;;;;110.50;46.10;;;22.40;70.10;;;;;;220895;1267;25388;-49
2022/10/01 15:24:53;;;;;;;112.10;45.30;;;22.40;69.60;;;;;;220625;1267;22726;-48
2022/10/01 15:29:58;;;;;;;111.30;46.00;;;22.40;69.90;;;;;;220444;1270;24241;-48
2022/10/01 15:35:25;;;;;;;118.50;45.30;;;22.50;69.90;;;;;;220597;1268;22558;-48
2022/10/01 15:40:41;;;;;;;109.20;44.60;;;22.50;69.90;;;;;;220487;1268;22780;-49
2022/10/01 15:46:12;;;;;;;101.90;42.00;;;22.40;69.80;;;;;;220395;1268;24146;-51
2022/10/01 15:51:27;;;;;;;93.90;40.10;;;22.50;69.90;;;;;;220557;1268;22689;-53
2022/10/01 15:56:40;;;;;;;91.70;38.30;;;22.40;69.70;;;;;;220595;1268;25366;-50
2022/10/01 16:01:49;;;;;;;94.90;39.30;;;22.40;70.00;;;;;;220473;1268;23876;-49
2022/10/01 16:06:58;;;;;;;86.50;38.70;;;22.40;70.40;;;;;;220532;1268;22725;-50
2022/10/01 16:12:10;;;;;;;85.60;36.00;;;22.40;70.00;;;;;;220578;1267;22534;-50
2022/10/01 16:17:18;;;;;;;80.40;35.00;;;22.40;69.90;;;;;;220484;1268;22741;-49
2022/10/01 16:22:38;;;;;;;84.20;35.30;;;22.40;69.70;;;;;;220434;1268;24228;-52
2022/10/01 16:28:05;;;;;;;79.30;34.20;;;22.30;69.80;;;;;;220644;1267;25364;-49
2022/10/01 16:33:11;;;;;;;70.20;30.90;;;22.30;69.70;;;;;;222199;1267;24372;-51
2022/10/01 16:38:14;;;;;;;67.90;30.90;;;22.30;69.40;;;;;;220247;1270;25324;-49
2022/10/01 16:43:24;;;;;;;68.10;29.30;;;22.30;69.80;;;;;;220599;1267;22537;-50
2022/10/01 16:48:29;;;;;;;62.80;27.70;;;22.20;69.40;;;;;;220776;1267;26669;-52
2022/10/01 16:53:34;;;;;;;74.00;31.20;;;22.20;69.00;;;;;;220802;1265;22535;-47
2022/10/01 16:58:56;;;;;;;178.90;56.30;;;22.20;69.30;;;;;;220619;1267;22596;-48
2022/10/01 17:04:00;;;;;;;256.90;72.80;;;22.10;69.00;;;;;;220723;1265;25248;-49
2022/10/01 17:09:04;;;;;;;307.60;87.70;;;22.10;69.10;;;;;;220756;1264;22651;-50
2022/10/01 17:14:17;;;;;;;292.10;82.50;;;22.10;69.00;;;;;;220598;1267;23036;-51
2022/10/01 17:19:21;;;;;;;250.70;72.50;;;22.10;69.00;;;;;;220543;1267;22532;-52
2022/10/01 17:24:25;;;;;;;233.50;67.20;;;22.10;68.50;;;;;;220748;1267;24269;-47
2022/10/01 17:29:31;;;;;;;265.00;73.30;;;22.10;68.80;;;;;;220638;1265;22619;-49
2022/10/01 17:34:38;;;;;;;343.20;94.00;;;22.10;69.40;;;;;;220677;1265;23954;-52
2022/10/01 17:39:42;;;;;;;385.80;104.50;;;22.10;69.90;;;;;;220346;1267;22701;-46
2022/10/01 17:44:46;;;;;;;451.90;125.60;;;22.10;69.70;;;;;;220430;1268;22555;-50
2022/10/01 17:50:03;;;;;;;477.90;140.30;;;22.10;69.90;;;;;;220818;1267;22539;-50
2022/10/01 17:55:11;;;;;;;466.10;129.60;;;22.10;70.00;;;;;;220691;1267;23037;-48
2022/10/01 18:00:17;;;;;;;423.50;125.60;;;22.10;69.90;;;;;;220327;1267;22528;-51
2022/10/01 18:05:21;;;;;;;416.40;122.40;;;22.10;70.30;;;;;;220686;1267;24224;-48
2022/10/01 18:10:26;;;;;;;391.40;111.70;;;22.10;70.50;;;;;;220379;1267;22550;-48
2022/10/01 18:15:39;;;;;;;371.50;105.70;;;22.10;70.50;;;;;;220335;1267;22538;-48
2022/10/01 18:21:06;;;;;;;329.00;102.30;;;22.10;70.40;;;;;;220472;1268;23900;-49
2022/10/01 18:26:18;;;;;;;312.30;93.20;;;22.20;70.40;;;;;;220576;1267;24219;-48
2022/10/01 18:31:51;;;;;;;278.30;89.60;;;22.20;70.10;;;;;;220400;1268;24259;-52
2022/10/01 18:37:37;;;;;;;235.10;79.70;;;22.10;69.40;;;;;;220365;1267;24279;-49
2022/10/01 18:43:07;;;;;;;217.30;69.60;;;22.10;68.70;;;;;;220134;1267;22837;-50
2022/10/01 18:49:02;;;;;;;193.50;66.40;;;22.10;68.40;;;;;;220714;1267;25204;-49
2022/10/01 18:54:15;;;;;;;182.40;60.50;;;22.10;68.80;;;;;;220363;1270;24215;-49
2022/10/01 18:59:58;;;;;;;164.80;58.90;;;22.00;68.80;;;;;;220514;1267;23911;-49
2022/10/01 19:05:49;;;;;;;163.80;56.70;;;22.10;69.10;;;;;;220368;1267;24209;-50
2022/10/01 19:11:25;;;;;;;171.60;59.40;;;22.10;69.00;;;;;;220648;1267;25245;-49
2022/10/01 19:16:52;;;;;;;170.40;53.10;;;22.20;69.80;;;;;;220531;1268;24426;-49
2022/10/01 19:22:22;;;;;;;152.50;55.70;;;22.20;69.60;;;;;;220276;1267;27647;-49
2022/10/01 19:28:07;;;;;;;168.30;56.20;;;22.20;69.10;;;;;;220644;1267;22605;-48
2022/10/01 19:33:20;;;;;;;158.90;59.60;;;22.20;69.10;;;;;;220644;1267;25570;-51
2022/10/01 19:38:38;;;;;;;146.60;54.10;;;22.10;69.40;;;;;;220863;1267;24412;-51
2022/10/01 19:44:03;;;;;;;149.70;53.40;;;22.10;69.40;;;;;;220725;1267;24371;-46
2022/10/01 19:49:07;;;;;;;150.80;49.10;;;22.00;69.40;;;;;;220705;1267;22532;-53
2022/10/01 19:54:26;;;;;;;134.30;50.80;;;22.10;70.10;;;;;;220472;1267;24928;-47
2022/10/01 19:59:37;;;;;;;133.50;48.80;;;22.20;71.20;;;;;;220825;1267;22551;-50
2022/10/01 20:05:23;;;;;;;126.40;46.20;;;22.20;71.60;;;;;;220980;1267;25430;-48
2022/10/01 20:10:37;;;;;;;123.30;44.10;;;22.10;71.60;;;;;;220279;1267;25319;-50
2022/10/01 20:16:13;;;;;;;127.10;46.40;;;22.00;71.70;;;;;;220649;1267;25236;-51
2022/10/01 20:22:18;;;;;;;125.00;46.20;;;22.00;71.20;;;;;;220374;1267;22551;-59
2022/10/01 20:27:55;;;;;;;109.10;43.80;;;22.00;71.60;;;;;;219151;1274;22728;-61
2022/10/01 20:33:28;;;;;;;109.50;44.70;;;21.90;70.70;;;;;;220155;1270;24429;-58
2022/10/01 20:39:19;;;;;;;106.00;43.00;;;21.90;71.20;;;;;;220255;1270;24435;-59
2022/10/01 20:44:39;;;;;;;112.90;43.70;;;21.80;71.40;;;;;;220698;1267;22716;-56
2022/10/01 20:50:01;;;;;;;100.50;42.20;;;21.80;71.20;;;;;;220503;1267;25340;-57
2022/10/01 20:56:00;;;;;;;98.40;39.60;;;21.80;71.60;;;;;;220292;1267;22534;-56
2022/10/01 21:01:38;;;;;;;96.70;37.50;;;21.80;72.50;;;;;;220040;1270;24332;-59
2022/10/01 21:07:20;;;;;;;99.30;41.20;;;21.80;72.90;;;;;;220297;1268;25378;-59
2022/10/01 21:12:40;;;;;;;84.60;36.50;;;21.70;73.20;;;;;;219954;1269;23142;-58
2022/10/01 21:17:55;;;;;;;94.50;40.70;;;21.70;73.00;;;;;;220612;1267;22605;-59
2022/10/01 21:23:18;;;;;;;90.30;38.30;;;21.70;73.20;;;;;;220447;1267;25305;-60
2022/10/01 21:28:53;;;;;;;85.80;36.30;;;21.60;73.20;;;;;;220430;1267;23020;-57
2022/10/01 21:34:02;;;;;;;81.10;35.40;;;21.60;73.60;;;;;;220424;1267;24303;-60
2022/10/01 21:39:29;;;;;;;83.40;34.30;;;21.60;73.60;;;;;;220453;1267;22518;-60
2022/10/01 21:44:50;;;;;;;81.10;33.50;;;21.60;73.60;;;;;;220114;1267;22694;-59
2022/10/01 21:50:03;;;;;;;74.30;33.40;;;21.60;73.80;;;;;;220637;1267;26493;-60
2022/10/01 21:55:43;;;;;;;72.10;31.40;;;21.60;74.40;;;;;;220693;1267;24301;-59
2022/10/01 22:01:26;;;;;;;72.30;32.20;;;21.60;73.80;;;;;;220460;1267;23947;-59
2022/10/01 22:06:43;;;;;;;69.00;32.00;;;21.60;74.00;;;;;;220489;1267;23904;-57
2022/10/01 22:11:51;;;;;;;66.10;28.00;;;21.50;74.20;;;;;;220656;1267;22716;-62
2022/10/01 22:16:57;;;;;;;63.40;28.00;;;21.50;73.70;;;;;;220378;1267;22987;-59
2022/10/01 22:22:15;;;;;;;62.80;28.50;;;21.60;73.90;;;;;;220711;1267;23198;-58
2022/10/01 22:27:24;;;;;;;66.60;31.20;;;21.50;73.90;;;;;;220429;1267;28125;-60
2022/10/01 22:32:48;;;;;;;58.10;28.60;;;21.50;73.90;;;;;;220504;1267;22546;-55
2022/10/01 22:38:26;;;;;;;57.70;26.40;;;21.50;73.80;;;;;;220622;1267;22560;-60
2022/10/01 22:43:34;;;;;;;55.60;25.80;;;21.50;73.90;;;;;;220300;1267;24090;-59
2022/10/01 22:48:48;;;;;;;64.10;29.10;;;21.50;74.50;;;;;;220132;1270;176213;-61
2022/10/01 22:54:28;;;;;;;57.10;26.40;;;21.50;74.30;;;;;;220569;1267;24210;-59
2022/10/01 22:59:47;;;;;;;52.10;25.30;;;21.50;73.90;;;;;;220562;1268;24296;-60
2022/10/01 23:05:10;;;;;;;58.30;26.60;;;21.50;73.90;;;;;;220415;1268;22536;-59
2022/10/01 23:10:43;;;;;;;56.30;27.50;;;21.40;73.80;;;;;;220639;1267;22538;-60
2022/10/01 23:16:14;;;;;;;47.00;23.80;;;21.40;73.60;;;;;;220661;1267;22645;-57
2022/10/01 23:21:36;;;;;;;46.00;24.80;;;21.40;74.00;;;;;;220400;1267;22584;-60
2022/10/01 23:27:11;;;;;;;54.00;25.60;;;21.40;73.80;;;;;;220455;1267;23107;-59
2022/10/01 23:32:17;;;;;;;50.60;25.30;;;21.40;73.50;;;;;;220427;1267;25381;-59
2022/10/01 23:37:55;;;;;;;52.00;25.70;;;21.40;72.90;;;;;;220516;1267;25547;-60
2022/10/01 23:43:19;;;;;;;45.30;23.20;;;21.40;72.90;;;;;;220391;1267;24417;-60
2022/10/01 23:48:32;;;;;;;47.30;23.90;;;21.40;73.20;;;;;;220519;1267;25355;-59
2022/10/01 23:53:45;;;;;;;48.90;23.10;;;21.40;73.00;;;;;;220509;1267;25339;-60
2022/10/01 23:59:23;;;;;;;45.10;23.40;;;21.40;72.50;;;;;;220535;1267;24062;-60
